createdAt,value
2022-09-24T00:01:12.729Z,100844.84
2022-09-24T00:03:49.036Z,100857.94
2022-09-24T00:06:17.112Z,100851.84
2022-09-24T00:08:45.515Z,100843.25
2022-09-24T00:11:16.372Z,100851.94
2022-09-24T00:13:44.205Z,100850.09
2022-09-24T00:16:13.931Z,100853.66
2022-09-24T00:18:41.959Z,100846.69
2022-09-24T00:21:15.562Z,100850.28
2022-09-24T00:23:43.527Z,100846.84
2022-09-24T00:26:11.685Z,100840.81
2022-09-24T00:28:41.637Z,100834.78
2022-09-24T00:31:09.211Z,100843.69
2022-09-24T00:33:37.314Z,100836.72
2022-09-24T00:36:06.231Z,100834.06
2022-09-24T00:38:34.317Z,100845.53
2022-09-24T00:41:02.325Z,100846.47
2022-09-24T00:43:32.252Z,100835.38
2022-09-24T00:46:07.832Z,100840.66
2022-09-24T00:48:38.120Z,100842.34
2022-09-24T00:51:06.442Z,100845.88
2022-09-24T00:53:35.027Z,100837.25
2022-09-24T00:56:09.118Z,100844.16
2022-09-24T00:58:37.493Z,100843.19
2022-09-24T01:01:08.160Z,100843.19
2022-09-24T01:03:40.308Z,100840.66
2022-09-24T01:06:08.993Z,100837.38
2022-09-24T01:08:37.784Z,100844.22
2022-09-24T01:11:20.789Z,100844.16
2022-09-24T01:14:14.120Z,100835.41
2022-09-24T01:16:48.669Z,100841.41
2022-09-24T01:19:40.046Z,100842.38
2022-09-24T01:22:20.790Z,100837.25
2022-09-24T01:25:00.528Z,100838.88
2022-09-24T01:27:44.303Z,100842.25
2022-09-24T01:30:14.108Z,100839.69
2022-09-24T01:32:46.480Z,100843.25
2022-09-24T01:35:19.343Z,100840.78
2022-09-24T01:37:52.024Z,100837.31
2022-09-24T01:40:22.176Z,100841.78
2022-09-24T01:42:52.342Z,100843.53
2022-09-24T01:45:21.863Z,100842.75
2022-09-24T01:47:50.110Z,100844.50
2022-09-24T01:50:19.729Z,100841.06
2022-09-24T01:52:54.897Z,100847.25
2022-09-24T01:55:26.697Z,100842.13
2022-09-24T01:58:00.836Z,100858.75
2022-09-24T02:00:30.838Z,100851.72
2022-09-24T02:03:05.742Z,100858.69
2022-09-24T02:05:38.542Z,100851.66
2022-09-24T02:08:10.827Z,100855.25
2022-09-24T02:10:44.291Z,100850.91
2022-09-24T02:13:14.786Z,100864.28
2022-09-24T02:15:49.426Z,100866.84
2022-09-24T02:18:21.299Z,100858.09
2022-09-24T02:20:51.675Z,100856.38
2022-09-24T02:23:20.958Z,100869.41
2022-09-24T02:25:55.430Z,100869.38
2022-09-24T02:28:23.023Z,100870.16
2022-09-24T02:30:57.512Z,100876.25
2022-09-24T02:33:27.138Z,100875.50
2022-09-24T02:35:55.037Z,100878.16
2022-09-24T02:38:23.399Z,100879.19
2022-09-24T02:40:52.062Z,100878.06
2022-09-24T02:43:19.891Z,100879.66
2022-09-24T02:45:47.665Z,100884.03
2022-09-24T02:48:16.662Z,100882.28
2022-09-24T02:50:44.500Z,100889.31
2022-09-24T02:53:12.260Z,100889.09
2022-09-24T02:55:40.215Z,100879.50
2022-09-24T02:58:08.006Z,100889.06
2022-09-24T03:00:35.743Z,100895.16
2022-09-24T03:03:03.577Z,100891.66
2022-09-24T03:05:32.824Z,100888.22
2022-09-24T03:08:02.200Z,100896.91
2022-09-24T03:10:29.959Z,100893.44
2022-09-24T03:12:57.554Z,100890.84
2022-09-24T03:15:25.401Z,100900.41
2022-09-24T03:17:54.018Z,100896.06
2022-09-24T03:20:21.949Z,100895.44
2022-09-24T03:22:52.073Z,100910.31
2022-09-24T03:25:20.462Z,100904.25
2022-09-24T03:27:49.331Z,100893.84
2022-09-24T03:30:17.149Z,100899.81
2022-09-24T03:32:44.721Z,100904.22
2022-09-24T03:35:12.450Z,100900.66
2022-09-24T03:37:40.335Z,100911.13
2022-09-24T03:40:10.800Z,100905.06
2022-09-24T03:42:39.575Z,100909.41
2022-09-24T03:45:08.568Z,100910.25
2022-09-24T03:47:36.307Z,100910.31
2022-09-24T03:50:04.320Z,100911.31
2022-09-24T03:52:32.505Z,100917.31
2022-09-24T03:55:00.072Z,100915.75
2022-09-24T03:57:29.043Z,100917.41
2022-09-24T03:59:56.756Z,100917.41
2022-09-24T04:02:24.493Z,100916.50
2022-09-24T04:04:52.086Z,100914.78
2022-09-24T04:07:19.798Z,100921.75
2022-09-24T04:09:47.395Z,100919.13
2022-09-24T04:12:15.499Z,100920.16
2022-09-24T04:14:44.728Z,100922.66
2022-09-24T04:17:12.354Z,100921.91
2022-09-24T04:19:39.930Z,100916.72
2022-09-24T04:22:07.589Z,100919.34
2022-09-24T04:24:35.194Z,100931.56
2022-09-24T04:27:04.196Z,100928.16
2022-09-24T04:29:32.004Z,100925.59
2022-09-24T04:32:01.314Z,100929.84
2022-09-24T04:34:29.332Z,100940.38
2022-09-24T04:36:57.137Z,100944.66
2022-09-24T04:39:24.845Z,100949.88
2022-09-24T04:41:52.549Z,100945.47
2022-09-24T04:44:20.286Z,100943.53
2022-09-24T04:46:47.939Z,100942.56
2022-09-24T04:49:16.988Z,100945.78
2022-09-24T04:51:47.605Z,100946.44
2022-09-24T04:54:15.170Z,100950.69
2022-09-24T04:56:42.751Z,100960.13
2022-09-24T04:59:10.498Z,100953.81
2022-09-24T05:01:38.266Z,100952.72
2022-09-24T05:04:06.120Z,100952.47
2022-09-24T05:06:35.362Z,100960.00
2022-09-24T05:09:02.917Z,100963.38
2022-09-24T05:11:30.576Z,100964.94
2022-09-24T05:13:58.677Z,100949.97
2022-09-24T05:16:26.822Z,100951.53
2022-09-24T05:18:54.521Z,100953.13
2022-09-24T05:21:22.203Z,100944.19
2022-09-24T05:23:51.423Z,100947.47
2022-09-24T05:26:19.772Z,100942.88
2022-09-24T05:28:47.380Z,100949.78
2022-09-24T05:31:15.231Z,100947.72
2022-09-24T05:33:43.086Z,100945.78
2022-09-24T05:36:10.903Z,100953.47
2022-09-24T05:38:41.597Z,100940.97
2022-09-24T05:41:13.461Z,100945.22
2022-09-24T05:43:41.328Z,100936.13
2022-09-24T05:46:08.957Z,100942.00
2022-09-24T05:48:36.926Z,100932.19
2022-09-24T05:51:05.315Z,100940.53
2022-09-24T05:53:33.333Z,100936.88
2022-09-24T05:56:01.665Z,100933.03
2022-09-24T05:58:30.918Z,100931.75
2022-09-24T06:00:59.397Z,100933.88
2022-09-24T06:03:27.723Z,100935.34
2022-09-24T06:05:55.987Z,100936.56
2022-09-24T06:08:23.782Z,100944.88
2022-09-24T06:10:51.539Z,100947.13
2022-09-24T06:13:20.411Z,100955.31
2022-09-24T06:15:50.414Z,100953.69
2022-09-24T06:18:18.145Z,100958.41
2022-09-24T06:20:45.892Z,100964.34
2022-09-24T06:23:13.512Z,100961.13
2022-09-24T06:25:41.303Z,100954.66
2022-09-24T06:28:09.026Z,100960.44
2022-09-24T06:30:39.338Z,100970.34
2022-09-24T06:33:10.202Z,100964.56
2022-09-24T06:35:39.024Z,100969.56
2022-09-24T06:38:08.739Z,100964.16
2022-09-24T06:40:37.927Z,100971.56
2022-09-24T06:43:06.660Z,100970.97
2022-09-24T06:45:34.826Z,100978.50
2022-09-24T06:48:04.797Z,100982.88
2022-09-24T06:50:34.950Z,100981.22
2022-09-24T06:53:05.810Z,100974.03
2022-09-24T06:55:34.158Z,100980.47
2022-09-24T06:58:03.330Z,100978.38
2022-09-24T07:00:31.250Z,100978.88
2022-09-24T07:02:58.890Z,100983.44
2022-09-24T07:05:26.686Z,100985.34
2022-09-24T07:07:55.903Z,100991.69
2022-09-24T07:10:23.799Z,100982.06
2022-09-24T07:12:53.009Z,100984.50
2022-09-24T07:15:21.312Z,100990.38
2022-09-24T07:17:55.183Z,100989.91
2022-09-24T07:20:23.273Z,100999.38
2022-09-24T07:22:51.658Z,100990.13
2022-09-24T07:25:20.708Z,100995.22
2022-09-24T07:27:48.432Z,100984.66
2022-09-24T07:30:16.317Z,100990.19
2022-09-24T07:32:43.932Z,100997.84
2022-09-24T07:35:11.784Z,100997.38
2022-09-24T07:37:39.330Z,101001.16
2022-09-24T07:40:08.168Z,100991.94
2022-09-24T07:42:37.411Z,100991.38
2022-09-24T07:45:05.697Z,100993.06
2022-09-24T07:47:33.601Z,100998.09
2022-09-24T07:50:01.346Z,101001.47
2022-09-24T07:52:28.987Z,100995.16
2022-09-24T07:54:56.549Z,100996.63
2022-09-24T07:57:24.819Z,100985.25
2022-09-24T07:59:53.921Z,100992.75
2022-09-24T08:02:21.775Z,100989.59
2022-09-24T08:04:49.391Z,100994.38
2022-09-24T08:07:17.142Z,101001.81
2022-09-24T08:09:44.929Z,100992.50
2022-09-24T08:12:12.615Z,100997.75
2022-09-24T08:14:42.403Z,100998.22
2022-09-24T08:17:11.497Z,100997.34
2022-09-24T08:19:41.253Z,101001.06
2022-09-24T08:22:08.887Z,100991.44
2022-09-24T08:24:36.759Z,101000.09
2022-09-24T08:27:04.865Z,100994.34
2022-09-24T08:29:32.708Z,100998.06
2022-09-24T08:32:01.110Z,100997.38
2022-09-24T08:34:30.455Z,101003.22
2022-09-24T08:36:58.126Z,100996.00
2022-09-24T08:39:25.867Z,100992.25
2022-09-24T08:41:57.229Z,100987.72
2022-09-24T08:44:30.526Z,100975.69
2022-09-24T08:47:03.558Z,100982.69
2022-09-24T08:49:37.786Z,100984.88
2022-09-24T08:52:15.182Z,100991.84
2022-09-24T08:54:45.716Z,100988.19
2022-09-24T08:57:16.956Z,100988.19
2022-09-24T08:59:51.589Z,100991.69
2022-09-24T09:02:34.443Z,100996.91
2022-09-24T09:05:18.631Z,100985.03
2022-09-24T09:07:54.608Z,100989.41
2022-09-24T09:10:25.102Z,100986.31
2022-09-24T09:12:55.846Z,100987.63
2022-09-24T09:15:28.447Z,100989.81
2022-09-24T09:18:01.808Z,100971.97
2022-09-24T09:20:36.077Z,100975.94
2022-09-24T09:23:11.560Z,100971.03
2022-09-24T09:25:42.528Z,100974.75
2022-09-24T09:28:13.545Z,100986.97
2022-09-24T09:30:54.902Z,100994.41
2022-09-24T09:33:35.289Z,100995.50
2022-09-24T09:36:33.887Z,100994.72
2022-09-24T09:39:10.903Z,100982.50
2022-09-24T09:41:47.233Z,100997.16
2022-09-24T09:44:20.709Z,101000.03
2022-09-24T09:46:53.607Z,100993.63
2022-09-24T09:49:23.414Z,100995.38
2022-09-24T09:51:56.480Z,100996.16
2022-09-24T09:54:36.586Z,101003.00
2022-09-24T09:57:06.222Z,101000.50
2022-09-24T09:59:35.179Z,100994.09
2022-09-24T10:02:10.630Z,100987.00
2022-09-24T10:04:40.508Z,100983.78
2022-09-24T10:07:15.428Z,100994.28
2022-09-24T10:09:45.927Z,100990.97
2022-09-24T10:12:17.102Z,100989.81
2022-09-24T10:14:58.222Z,100985.56
2022-09-24T10:17:30.179Z,100980.44
2022-09-24T10:20:01.777Z,100989.22
2022-09-24T10:22:31.369Z,100983.66
2022-09-24T10:25:00.593Z,100979.75
2022-09-24T10:27:33.258Z,100976.75
2022-09-24T10:30:03.361Z,100976.06
2022-09-24T10:32:31.133Z,100976.13
2022-09-24T10:35:00.413Z,100976.72
2022-09-24T10:37:29.090Z,100978.88
2022-09-24T10:40:00.246Z,100980.94
2022-09-24T10:42:29.623Z,100976.97
2022-09-24T10:45:00.411Z,100977.19
2022-09-24T10:47:35.354Z,100973.75
2022-09-24T10:50:19.619Z,100974.06
2022-09-24T10:52:53.450Z,100973.53
2022-09-24T10:55:48.726Z,100977.56
2022-09-24T10:58:33.240Z,100986.94
2022-09-24T11:01:14.254Z,100998.84
2022-09-24T11:04:11.040Z,100997.34
2022-09-24T11:06:57.550Z,101007.59
2022-09-24T11:09:34.628Z,101007.97
2022-09-24T11:12:13.456Z,101005.31
2022-09-24T11:15:03.547Z,101010.66
2022-09-24T11:17:33.547Z,101006.38
2022-09-24T11:20:20.445Z,101011.66
2022-09-24T11:23:20.377Z,101005.66
2022-09-24T11:25:55.645Z,101002.06
2022-09-24T11:28:37.838Z,100994.81
2022-09-24T11:31:12.109Z,101001.28
2022-09-24T11:34:02.414Z,100990.38
2022-09-24T11:36:43.670Z,100995.19
2022-09-24T11:39:23.048Z,100994.72
2022-09-24T11:42:01.264Z,100992.22
2022-09-24T11:44:58.092Z,100984.03
2022-09-24T11:47:37.993Z,100986.41
2022-09-24T11:50:24.203Z,101000.81
2022-09-24T11:53:02.045Z,100990.53
2022-09-24T11:55:37.228Z,100995.69
2022-09-24T11:58:14.454Z,100996.78
2022-09-24T12:00:50.016Z,100996.53
2022-09-24T12:03:26.108Z,100998.03
2022-09-24T12:06:02.238Z,100982.78
2022-09-24T12:08:37.631Z,100998.47
2022-09-24T12:11:14.007Z,100997.47
2022-09-24T12:13:46.579Z,101000.97
2022-09-24T12:16:22.013Z,101000.19
2022-09-24T12:18:54.870Z,101002.28
2022-09-24T12:21:27.125Z,100995.44
2022-09-24T12:24:02.977Z,100999.69
2022-09-24T12:26:36.085Z,100997.16
2022-09-24T12:29:17.939Z,100994.09
2022-09-24T12:31:55.568Z,101002.34
2022-09-24T12:34:29.827Z,100995.28
2022-09-24T12:37:04.300Z,101006.28
2022-09-24T12:39:42.697Z,101012.34
2022-09-24T12:42:13.056Z,101007.44
2022-09-24T12:44:46.381Z,101009.06
2022-09-24T12:47:20.314Z,100999.81
2022-09-24T12:49:52.794Z,101009.06
2022-09-24T12:52:25.786Z,101002.69
2022-09-24T12:54:59.161Z,101014.00
2022-09-24T12:57:30.239Z,101009.84
2022-09-24T13:00:00.006Z,101009.28
2022-09-24T13:02:31.094Z,101004.22
2022-09-24T13:05:16.417Z,101002.16
2022-09-24T13:07:56.344Z,101009.94
2022-09-24T13:10:27.213Z,101007.16
2022-09-24T13:12:57.233Z,101009.66
2022-09-24T13:15:35.935Z,101019.72
2022-09-24T13:18:21.071Z,101002.97
2022-09-24T13:20:59.429Z,101013.28
2022-09-24T13:23:44.891Z,101016.78
2022-09-24T13:26:26.220Z,101013.75
2022-09-24T13:28:56.193Z,100998.63
2022-09-24T13:31:32.025Z,101017.50
2022-09-24T13:34:06.666Z,101010.88
2022-09-24T13:36:40.198Z,101008.34
2022-09-24T13:39:14.763Z,100997.81
2022-09-24T13:41:50.299Z,101006.19
2022-09-24T13:44:23.545Z,101001.59
2022-09-24T13:46:59.090Z,101011.00
2022-09-24T13:49:30.139Z,101007.97
2022-09-24T13:52:08.025Z,101005.25
2022-09-24T13:54:44.429Z,101005.63
2022-09-24T13:57:15.827Z,101014.22
2022-09-24T13:59:43.395Z,101019.34
2022-09-24T14:02:25.846Z,101012.97
2022-09-24T14:04:57.220Z,101020.31
2022-09-24T14:07:26.952Z,101022.97
2022-09-24T14:10:03.749Z,101022.09
2022-09-24T14:12:31.695Z,101026.16
2022-09-24T14:14:59.422Z,101026.97
2022-09-24T14:17:27.143Z,101026.66
2022-09-24T14:19:57.199Z,101017.53
2022-09-24T14:22:30.557Z,101033.16
2022-09-24T14:25:01.341Z,101034.00
2022-09-24T14:27:30.791Z,101031.41
2022-09-24T14:30:01.294Z,101035.84
2022-09-24T14:32:31.629Z,101035.84
2022-09-24T14:35:04.297Z,101045.44
2022-09-24T14:37:35.898Z,101044.59
2022-09-24T14:40:07.126Z,101050.75
2022-09-24T14:42:40.268Z,101047.41
2022-09-24T14:45:10.405Z,101046.44
2022-09-24T14:47:38.207Z,101044.88
2022-09-24T14:50:32.488Z,101045.09
2022-09-24T14:53:00.059Z,101046.97
2022-09-24T14:55:37.674Z,101048.97
2022-09-24T14:58:05.672Z,101048.03
2022-09-24T15:00:46.446Z,101057.78
2022-09-24T15:03:16.948Z,101050.81
2022-09-24T15:05:46.859Z,101048.97
2022-09-24T15:08:26.248Z,101055.03
2022-09-24T15:10:55.990Z,101063.06
2022-09-24T15:13:25.947Z,101059.94
2022-09-24T15:16:05.128Z,101072.38
2022-09-24T15:18:33.291Z,101073.44
2022-09-24T15:21:02.421Z,101079.25
2022-09-24T15:23:30.399Z,101081.22
2022-09-24T15:25:58.009Z,101102.88
2022-09-24T15:28:25.708Z,101100.50
2022-09-24T15:30:53.740Z,101095.41
2022-09-24T15:33:21.417Z,101095.63
2022-09-24T15:35:49.545Z,101106.53
2022-09-24T15:38:20.238Z,101113.16
2022-09-24T15:40:48.034Z,101111.84
2022-09-24T15:43:19.901Z,101102.88
2022-09-24T15:45:47.610Z,101113.84
2022-09-24T15:48:15.256Z,101110.72
2022-09-24T15:50:45.486Z,101111.34
2022-09-24T15:53:21.329Z,101114.03
2022-09-24T15:55:52.961Z,101113.44
2022-09-24T15:58:21.435Z,101108.44
2022-09-24T16:00:49.268Z,101125.41
2022-09-24T16:03:20.061Z,101122.31
2022-09-24T16:05:48.248Z,101126.00
2022-09-24T16:08:16.248Z,101129.81
2022-09-24T16:10:52.752Z,101123.16
2022-09-24T16:13:21.239Z,101127.56
2022-09-24T16:15:50.030Z,101133.88
2022-09-24T16:18:18.034Z,101128.78
2022-09-24T16:20:45.794Z,101133.41
2022-09-24T16:23:15.409Z,101135.50
2022-09-24T16:25:56.316Z,101141.84
2022-09-24T16:28:26.735Z,101143.91
2022-09-24T16:30:55.402Z,101140.59
2022-09-24T16:33:24.120Z,101142.59
2022-09-24T16:35:53.234Z,101156.69
2022-09-24T16:38:23.146Z,101150.72
2022-09-24T16:41:01.057Z,101151.97
2022-09-24T16:43:29.414Z,101153.84
2022-09-24T16:46:00.500Z,101151.41
2022-09-24T16:48:28.393Z,101155.03
2022-09-24T16:51:02.048Z,101160.50
2022-09-24T16:53:29.932Z,101169.41
2022-09-24T16:56:08.025Z,101168.94
2022-09-24T16:58:36.430Z,101167.63
2022-09-24T17:01:05.322Z,101171.34
2022-09-24T17:03:34.701Z,101165.56
2022-09-24T17:06:03.511Z,101172.88
2022-09-24T17:08:31.647Z,101173.38
2022-09-24T17:11:00.615Z,101180.53
2022-09-24T17:13:30.391Z,101184.94
2022-09-24T17:16:01.355Z,101187.91
2022-09-24T17:18:29.195Z,101193.59
2022-09-24T17:21:00.711Z,101199.09
2022-09-24T17:23:28.513Z,101198.66
2022-09-24T17:26:01.846Z,101207.44
2022-09-24T17:28:33.637Z,101208.56
2022-09-24T17:31:04.287Z,101216.72
2022-09-24T17:33:43.402Z,101213.41
2022-09-24T17:36:13.023Z,101216.22
2022-09-24T17:38:40.836Z,101217.31
2022-09-24T17:41:10.867Z,101213.22
2022-09-24T17:43:42.131Z,101215.94
2022-09-24T17:46:14.359Z,101224.72
2022-09-24T17:48:44.039Z,101225.66
2022-09-24T17:51:14.308Z,101232.78
2022-09-24T17:53:42.386Z,101228.56
2022-09-24T17:56:12.267Z,101223.59
2022-09-24T17:58:43.251Z,101230.56
2022-09-24T18:01:12.888Z,101234.19
2022-09-24T18:03:41.325Z,101232.59
2022-09-24T18:06:11.159Z,101232.81
2022-09-24T18:08:42.722Z,101234.75
2022-09-24T18:11:15.094Z,101240.16
2022-09-24T18:13:45.781Z,101239.44
2022-09-24T18:16:15.587Z,101235.19
2022-09-24T18:18:44.345Z,101233.66
2022-09-24T18:21:13.587Z,101231.25
2022-09-24T18:23:41.625Z,101234.94
2022-09-24T18:26:10.415Z,101243.72
2022-09-24T18:28:40.367Z,101238.78
2022-09-24T18:31:10.694Z,101238.06
2022-09-24T18:33:40.875Z,101234.00
2022-09-24T18:36:10.864Z,101233.19
2022-09-24T18:38:38.884Z,101234.94
2022-09-24T18:41:08.719Z,101227.16
2022-09-24T18:43:37.686Z,101234.88
2022-09-24T18:46:06.263Z,101218.50
2022-09-24T18:48:35.591Z,101239.34
2022-09-24T18:51:04.009Z,101232.44
2022-09-24T18:53:32.634Z,101224.69
2022-09-24T18:56:04.801Z,101232.56
2022-09-24T18:58:33.008Z,101243.78
2022-09-24T19:01:02.163Z,101242.00
2022-09-24T19:03:30.971Z,101246.38
2022-09-24T19:06:03.804Z,101244.78
2022-09-24T19:08:31.735Z,101242.00
2022-09-24T19:11:02.643Z,101250.16
2022-09-24T19:13:34.350Z,101241.75
2022-09-24T19:16:04.444Z,101249.59
2022-09-24T19:18:33.184Z,101236.50
2022-09-24T19:21:03.356Z,101241.81
2022-09-24T19:23:30.953Z,101248.66
2022-09-24T19:26:03.131Z,101248.47
2022-09-24T19:28:31.291Z,101243.34
2022-09-24T19:30:59.051Z,101251.22
2022-09-24T19:33:27.305Z,101245.19
2022-09-24T19:35:56.706Z,101248.75
2022-09-24T19:38:28.470Z,101255.03
2022-09-24T19:40:57.715Z,101249.06
2022-09-24T19:43:25.339Z,101251.78
2022-09-24T19:45:57.175Z,101253.47
2022-09-24T19:48:25.996Z,101239.75
2022-09-24T19:50:54.246Z,101258.88
2022-09-24T19:53:21.934Z,101260.81
2022-09-24T19:55:51.134Z,101264.31
2022-09-24T19:58:18.714Z,101263.53
2022-09-24T20:00:46.513Z,101271.44
2022-09-24T20:03:14.448Z,101272.31
2022-09-24T20:05:42.613Z,101269.84
2022-09-24T20:08:11.660Z,101272.63
2022-09-24T20:10:40.364Z,101270.06
2022-09-24T20:13:09.510Z,101270.84
2022-09-24T20:15:38.152Z,101275.25
2022-09-24T20:18:06.298Z,101280.56
2022-09-24T20:20:34.323Z,101285.78
2022-09-24T20:23:01.941Z,101289.34
2022-09-24T20:25:30.016Z,101287.53
2022-09-24T20:27:57.641Z,101287.59
2022-09-24T20:30:26.637Z,101280.63
2022-09-24T20:32:54.330Z,101289.25
2022-09-24T20:35:23.688Z,101298.88
2022-09-24T20:37:51.365Z,101300.56
2022-09-24T20:40:19.469Z,101305.75
2022-09-24T20:42:47.035Z,101300.56
2022-09-24T20:45:15.218Z,101299.78
2022-09-24T20:47:44.631Z,101299.13
2022-09-24T20:50:12.216Z,101302.63
2022-09-24T20:52:40.031Z,101309.63
2022-09-24T20:55:08.931Z,101310.53
2022-09-24T20:57:36.472Z,101310.59
2022-09-24T21:00:05.465Z,101311.50
2022-09-24T21:02:35.766Z,101315.00
2022-09-24T21:05:08.790Z,101323.75
2022-09-24T21:07:36.917Z,101322.03
2022-09-24T21:10:04.922Z,101317.72
2022-09-24T21:12:33.319Z,101316.84
2022-09-24T21:15:01.019Z,101320.41
2022-09-24T21:17:28.764Z,101315.31
2022-09-24T21:19:56.322Z,101320.56
2022-09-24T21:22:25.932Z,101312.72
2022-09-24T21:24:53.522Z,101307.50
2022-09-24T21:27:21.070Z,101312.72
2022-09-24T21:29:49.480Z,101317.03
2022-09-24T21:32:17.533Z,101311.81
2022-09-24T21:34:45.615Z,101308.50
2022-09-24T21:37:14.356Z,101313.72
2022-09-24T21:39:43.652Z,101312.78
2022-09-24T21:42:11.786Z,101315.31
2022-09-24T21:44:39.591Z,101310.16
2022-09-24T21:47:07.896Z,101311.06
2022-09-24T21:49:35.671Z,101309.25
2022-09-24T21:52:05.352Z,101309.31
2022-09-24T21:54:34.078Z,101306.63
2022-09-24T21:57:03.541Z,101295.38
2022-09-24T21:59:31.181Z,101303.28
2022-09-24T22:01:59.298Z,101297.16
2022-09-24T22:04:27.067Z,101299.75
2022-09-24T22:06:55.338Z,101305.78
2022-09-24T22:09:23.346Z,101294.41
2022-09-24T22:11:52.507Z,101296.13
2022-09-24T22:14:22.199Z,101293.56
2022-09-24T22:16:49.909Z,101297.94
2022-09-24T22:19:18.020Z,101292.88
2022-09-24T22:21:46.094Z,101299.03
2022-09-24T22:24:15.769Z,101297.19
2022-09-24T22:26:43.592Z,101303.28
2022-09-24T22:29:13.385Z,101293.66
2022-09-24T22:31:42.910Z,101295.44
2022-09-24T22:34:10.769Z,101297.25
2022-09-24T22:36:38.692Z,101286.91
2022-09-24T22:39:06.921Z,101287.91
2022-09-24T22:41:37.189Z,101288.81
2022-09-24T22:44:05.781Z,101294.88
2022-09-24T22:46:33.690Z,101295.69
2022-09-24T22:49:05.622Z,101280.91
2022-09-24T22:51:34.139Z,101294.84
2022-09-24T22:54:01.719Z,101295.91
2022-09-24T22:56:29.817Z,101311.50
2022-09-24T22:58:58.873Z,101303.59
2022-09-24T23:01:30.005Z,101310.56
2022-09-24T23:03:58.778Z,101317.50
2022-09-24T23:06:28.292Z,101319.28
2022-09-24T23:08:56.116Z,101328.03
2022-09-24T23:11:25.969Z,101322.75
2022-09-24T23:13:55.430Z,101313.25
2022-09-24T23:16:26.066Z,101308.09
2022-09-24T23:18:56.793Z,101321.22
2022-09-24T23:21:26.849Z,101317.78
2022-09-24T23:23:57.462Z,101309.97
2022-09-24T23:26:26.374Z,101319.53
2022-09-24T23:28:54.697Z,101316.88
2022-09-24T23:31:24.373Z,101315.13
2022-09-24T23:33:53.838Z,101323.81
2022-09-24T23:36:22.262Z,101317.72
2022-09-24T23:38:50.127Z,101318.59
2022-09-24T23:41:20.786Z,101313.41
2022-09-24T23:43:48.696Z,101309.00
2022-09-24T23:46:16.938Z,101312.50
2022-09-24T23:48:45.191Z,101311.69
2022-09-24T23:51:13.090Z,101303.06
2022-09-24T23:53:40.855Z,101307.41
2022-09-24T23:56:09.607Z,101300.44
2022-09-24T23:58:38.736Z,101312.56
